Terminal Aerodrome Forecast
Issued by NWS

Home | Current Version | Previous Version | Graphics & Text | Print | Product List | Glossary Off
Versions: 1 2 3 4 5 6 7 8 9 10 11 12 13 14 15 16 17 18 19

000
FTUS43 KTOP 221700
TAFFOE
TAF
KFOE 221720Z 2218/2318 22010KT 5SM -RA BR OVC006
     FM222000 29014KT 6SM BR SCT012 OVC025
     FM222300 29012KT P6SM SCT030 OVC060=

USA.gov is the U.S. government's official web portal to all federal, state and local government web resources and services.